Time;durP1;ratioP1;P1;durP2;ratioP2;P2;SDS_P1;SDS_P2;PMS_P1;PMS_P2;Temp;Humidity;BMP_temperature;BMP_pressure;BME280_temperature;BME280_humidity;BME280_pressure;Samples;Min_cycle;Max_cycle;Signal;HPM_P1;HPM_P2
2023/07/26 00:02:13;;;;;;;14.80;10.43;;;13.90;84.00;;;;;;5072614;28;20025;-81
2023/07/26 00:04:38;;;;;;;15.98;10.63;;;13.90;83.90;;;;;;5074500;28;20025;-80
2023/07/26 00:07:04;;;;;;;10.23;9.13;;;13.90;83.80;;;;;;5076661;28;20017;-81
2023/07/26 00:09:30;;;;;;;11.07;9.75;;;13.90;83.30;;;;;;5076116;28;20029;-82
2023/07/26 00:11:55;;;;;;;14.63;10.35;;;13.90;83.60;;;;;;5076517;28;20060;-81
2023/07/26 00:14:21;;;;;;;13.43;10.25;;;13.90;84.00;;;;;;5076315;28;20033;-80
2023/07/26 00:16:49;;;;;;;11.40;8.98;;;13.90;83.70;;;;;;5076145;28;20481;-81
2023/07/26 00:19:15;;;;;;;9.80;8.48;;;13.80;83.70;;;;;;5076459;28;20025;-81
2023/07/26 00:21:41;;;;;;;14.43;10.43;;;13.90;83.80;;;;;;5076480;28;20062;-80
2023/07/26 00:24:06;;;;;;;10.85;8.73;;;13.90;83.40;;;;;;5076477;28;20028;-81
2023/07/26 00:26:32;;;;;;;11.43;9.85;;;13.90;83.50;;;;;;5076461;28;20029;-81
2023/07/26 00:28:57;;;;;;;13.18;10.05;;;13.90;83.30;;;;;;5076270;28;20044;-80
2023/07/26 00:31:23;;;;;;;9.52;8.52;;;13.90;83.40;;;;;;5076215;28;20035;-82
2023/07/26 00:33:49;;;;;;;10.88;9.75;;;13.90;83.30;;;;;;5076097;28;20052;-81
2023/07/26 00:36:14;;;;;;;10.88;9.30;;;14.00;83.20;;;;;;5076153;28;20020;-80
2023/07/26 00:38:40;;;;;;;13.65;10.20;;;14.00;83.10;;;;;;5076355;28;20028;-83
2023/07/26 00:41:06;;;;;;;12.65;8.77;;;14.00;83.10;;;;;;5076238;28;20384;-83
2023/07/26 00:43:33;;;;;;;10.63;8.68;;;13.90;83.20;;;;;;5058195;28;20025;-83
2023/07/26 00:45:59;;;;;;;9.27;8.30;;;14.00;83.70;;;;;;5076038;28;20024;-82
2023/07/26 00:48:25;;;;;;;8.70;7.80;;;14.00;83.60;;;;;;5076197;28;20082;-80
2023/07/26 00:50:52;;;;;;;10.63;9.30;;;14.00;83.60;;;;;;5076112;28;20060;-82
2023/07/26 00:53:18;;;;;;;10.88;7.95;;;14.10;83.60;;;;;;5076134;28;20473;-82
2023/07/26 00:55:44;;;;;;;11.45;9.75;;;14.10;83.50;;;;;;5076013;28;20097;-81
2023/07/26 00:58:11;;;;;;;12.45;9.18;;;14.10;83.30;;;;;;5057900;28;20370;-82
2023/07/26 01:00:43;;;;;;;10.70;8.48;;;14.10;82.50;;;;;;5075798;28;20449;-81
2023/07/26 01:03:08;;;;;;;10.32;8.50;;;14.10;82.60;;;;;;5075911;28;20074;-80
2023/07/26 01:05:42;;;;;;;12.80;9.13;;;14.10;82.90;;;;;;5075811;28;20020;-80
2023/07/26 01:08:34;;;;;;;12.32;11.00;;;14.10;83.20;;;;;;5075710;28;20056;-77
2023/07/26 01:11:12;;;;;;;13.35;10.38;;;14.10;83.90;;;;;;5075590;28;20482;-82
2023/07/26 01:14:05;;;;;;;10.77;8.68;;;14.00;84.30;;;;;;5075651;28;20039;-82
2023/07/26 01:16:31;;;;;;;12.43;8.75;;;14.10;84.30;;;;;;5075473;28;20106;-81
2023/07/26 01:18:56;;;;;;;13.73;9.75;;;14.10;83.90;;;;;;5075472;28;20492;-81
2023/07/26 01:21:22;;;;;;;11.10;8.85;;;14.10;83.30;;;;;;5075461;28;20028;-82
2023/07/26 01:23:48;;;;;;;11.45;9.05;;;14.10;83.10;;;;;;5057512;28;20025;-81
2023/07/26 01:26:13;;;;;;;9.65;8.07;;;14.00;82.90;;;;;;5075360;28;20059;-82
2023/07/26 01:28:39;;;;;;;12.23;8.30;;;14.00;83.00;;;;;;5075160;28;20660;-81
2023/07/26 01:31:06;;;;;;;10.23;7.57;;;13.90;82.20;;;;;;5075308;28;20033;-82
2023/07/26 01:33:34;;;;;;;10.60;7.50;;;13.90;82.40;;;;;;5075267;28;20415;-84
2023/07/26 01:36:00;;;;;;;9.20;7.97;;;13.90;82.40;;;;;;5075320;28;20112;-84
2023/07/26 01:38:26;;;;;;;16.17;9.60;;;13.80;82.90;;;;;;5075164;28;20361;-81
2023/07/26 01:40:52;;;;;;;10.77;8.68;;;13.70;83.20;;;;;;5075093;28;20070;-82
2023/07/26 01:43:18;;;;;;;13.60;8.25;;;13.50;83.90;;;;;;5056346;28;20385;-80
2023/07/26 01:45:44;;;;;;;10.45;7.68;;;13.60;83.60;;;;;;5074990;28;20017;-80
2023/07/26 01:48:09;;;;;;;7.75;6.95;;;13.60;83.70;;;;;;5074878;28;20059;-80
2023/07/26 01:50:35;;;;;;;10.90;7.07;;;13.60;83.30;;;;;;5074735;28;20025;-80
2023/07/26 01:53:00;;;;;;;8.38;7.00;;;13.60;83.30;;;;;;5056978;28;20194;-80
2023/07/26 01:55:26;;;;;;;10.65;7.57;;;13.70;83.30;;;;;;5074914;28;20038;-81
2023/07/26 01:57:51;;;;;;;11.15;7.22;;;13.70;83.40;;;;;;5074807;28;20100;-81
2023/07/26 02:00:17;;;;;;;9.15;7.10;;;13.70;83.00;;;;;;5074485;28;20024;-80
2023/07/26 02:02:42;;;;;;;9.45;6.72;;;13.70;83.30;;;;;;5074653;28;20074;-80
2023/07/26 02:05:08;;;;;;;11.98;7.50;;;13.70;83.10;;;;;;5074598;28;20036;-80
2023/07/26 02:07:33;;;;;;;12.73;7.05;;;13.70;82.70;;;;;;5074608;28;20028;-80
2023/07/26 02:09:59;;;;;;;9.85;6.38;;;13.70;82.90;;;;;;5074564;28;20405;-80
2023/07/26 02:12:24;;;;;;;11.55;6.28;;;13.60;82.90;;;;;;5074532;28;20385;-81
2023/07/26 02:14:50;;;;;;;10.60;7.05;;;13.50;83.10;;;;;;5056449;28;20439;-82
2023/07/26 02:17:16;;;;;;;10.02;6.95;;;13.50;83.30;;;;;;5074409;28;20092;-80
2023/07/26 02:19:41;;;;;;;8.15;5.97;;;13.50;83.40;;;;;;5074093;28;20024;-81
2023/07/26 02:22:07;;;;;;;10.38;6.95;;;13.30;84.90;;;;;;5074237;28;20024;-83
2023/07/26 02:24:34;;;;;;;11.45;7.28;;;13.20;84.80;;;;;;5074315;28;20074;-83
2023/07/26 02:26:59;;;;;;;13.10;7.45;;;13.20;85.10;;;;;;5073873;28;20017;-83
2023/07/26 02:29:25;;;;;;;8.77;6.43;;;13.10;85.40;;;;;;5074058;28;20055;-81
2023/07/26 02:31:50;;;;;;;15.25;7.38;;;13.10;85.50;;;;;;5074119;28;20032;-81
2023/07/26 02:34:16;;;;;;;10.57;7.63;;;13.10;85.00;;;;;;5074007;28;20020;-82
2023/07/26 02:36:41;;;;;;;11.75;7.45;;;13.00;85.50;;;;;;5074025;28;20024;-80
2023/07/26 02:39:07;;;;;;;13.77;7.07;;;13.00;85.50;;;;;;5073886;28;20017;-80
2023/07/26 02:41:32;;;;;;;7.93;6.60;;;13.10;84.90;;;;;;5073792;28;20381;-80
2023/07/26 02:43:58;;;;;;;10.77;6.88;;;13.10;84.90;;;;;;5073583;28;20032;-78
2023/07/26 02:46:23;;;;;;;8.10;6.15;;;13.10;84.70;;;;;;5072830;28;20035;-79
2023/07/26 02:48:49;;;;;;;10.23;7.13;;;13.20;84.60;;;;;;5055256;28;20031;-79
2023/07/26 02:51:15;;;;;;;13.23;6.70;;;13.10;84.30;;;;;;5073548;28;20023;-79
2023/07/26 02:53:40;;;;;;;8.07;5.97;;;13.10;84.20;;;;;;5073531;28;20035;-78
2023/07/26 02:56:06;;;;;;;9.20;6.25;;;13.10;83.80;;;;;;5073309;28;20021;-79
2023/07/26 02:58:31;;;;;;;8.05;5.78;;;13.20;83.90;;;;;;5073093;28;20024;-80
2023/07/26 03:00:57;;;;;;;8.23;6.07;;;13.20;83.70;;;;;;5073535;28;20028;-79
2023/07/26 03:03:22;;;;;;;11.10;6.47;;;13.20;83.30;;;;;;5073305;28;20039;-79
2023/07/26 03:05:48;;;;;;;9.05;6.65;;;13.30;83.00;;;;;;5055380;28;20020;-80
2023/07/26 03:08:13;;;;;;;5.97;5.35;;;13.20;83.00;;;;;;5073378;28;20020;-80
2023/07/26 03:10:39;;;;;;;8.95;5.85;;;13.20;83.10;;;;;;5073301;28;20358;-79
2023/07/26 03:13:05;;;;;;;9.38;6.43;;;13.20;83.40;;;;;;5073275;28;20125;-78
2023/07/26 03:15:30;;;;;;;10.45;6.43;;;13.20;83.30;;;;;;5073207;28;20047;-78
2023/07/26 03:17:56;;;;;;;9.52;6.43;;;13.20;83.30;;;;;;5072978;28;20027;-78
2023/07/26 03:20:22;;;;;;;10.63;6.53;;;13.20;83.50;;;;;;5073124;28;20064;-78
2023/07/26 03:22:47;;;;;;;10.38;6.00;;;13.20;83.30;;;;;;5055538;28;20024;-78
2023/07/26 03:25:13;;;;;;;12.48;7.20;;;13.20;83.30;;;;;;5073005;28;20104;-78
2023/07/26 03:27:38;;;;;;;9.38;6.43;;;13.20;83.60;;;;;;5072883;28;20444;-78
2023/07/26 03:30:04;;;;;;;11.07;6.25;;;13.00;83.60;;;;;;5072804;28;20033;-78
2023/07/26 03:32:30;;;;;;;11.07;6.60;;;13.00;83.70;;;;;;5072887;28;20033;-78
2023/07/26 03:34:55;;;;;;;8.18;6.38;;;13.00;83.60;;;;;;5072904;28;20358;-78
2023/07/26 03:37:21;;;;;;;7.00;5.57;;;13.00;82.90;;;;;;5072673;28;20358;-78
2023/07/26 03:39:47;;;;;;;9.20;6.10;;;13.00;83.00;;;;;;5054114;28;20453;-79
2023/07/26 03:42:12;;;;;;;8.65;5.43;;;13.00;82.70;;;;;;5072830;28;20051;-78
2023/07/26 03:44:38;;;;;;;8.48;6.00;;;13.00;83.00;;;;;;5072789;28;20077;-78
2023/07/26 03:47:03;;;;;;;8.15;6.35;;;13.10;83.40;;;;;;5072805;28;20024;-78
2023/07/26 03:49:29;;;;;;;7.40;5.68;;;13.10;82.70;;;;;;5072653;28;20476;-79
2023/07/26 03:51:54;;;;;;;9.35;6.10;;;13.10;82.70;;;;;;5072765;28;20433;-79
2023/07/26 03:54:20;;;;;;;9.35;6.18;;;13.10;83.00;;;;;;5072559;28;20059;-80
2023/07/26 03:56:45;;;;;;;7.97;5.32;;;13.10;82.70;;;;;;5072599;28;20032;-78
2023/07/26 03:59:11;;;;;;;8.23;5.75;;;13.10;82.00;;;;;;5072822;28;20021;-78
2023/07/26 04:01:37;;;;;;;8.77;5.50;;;13.10;81.90;;;;;;5054744;28;20020;-79
2023/07/26 04:04:02;;;;;;;9.70;5.60;;;13.00;81.50;;;;;;5072826;28;20024;-80
2023/07/26 04:06:28;;;;;;;7.28;5.15;;;13.00;82.30;;;;;;5054858;28;20024;-78
2023/07/26 04:08:55;;;;;;;9.27;5.90;;;13.00;82.40;;;;;;5072450;28;20358;-78
2023/07/26 04:11:21;;;;;;;9.25;5.47;;;13.00;82.40;;;;;;5072637;28;20056;-78
2023/07/26 04:13:46;;;;;;;8.35;5.45;;;13.00;82.30;;;;;;5072186;28;20083;-78
2023/07/26 04:16:17;;;;;;;10.98;5.90;;;12.90;82.70;;;;;;5072748;28;20500;-78
2023/07/26 04:18:43;;;;;;;8.07;5.88;;;13.00;81.80;;;;;;5072550;28;20025;-78
2023/07/26 04:21:18;;;;;;;9.00;6.10;;;13.00;82.00;;;;;;5072373;28;20031;-80
2023/07/26 04:23:45;;;;;;;8.70;5.70;;;13.00;82.20;;;;;;5072467;28;20017;-82
2023/07/26 04:26:11;;;;;;;12.32;6.60;;;13.00;82.00;;;;;;5072370;28;20085;-82
2023/07/26 04:28:36;;;;;;;9.27;5.93;;;12.90;81.90;;;;;;5072402;28;20475;-81
2023/07/26 04:31:03;;;;;;;11.48;6.15;;;12.90;82.50;;;;;;5072637;28;20021;-83
2023/07/26 04:33:28;;;;;;;9.45;6.00;;;12.90;82.50;;;;;;5072647;28;20044;-83
2023/07/26 04:35:54;;;;;;;10.45;5.57;;;12.90;82.90;;;;;;5054678;28;20477;-83
2023/07/26 04:38:19;;;;;;;11.63;6.00;;;12.90;82.80;;;;;;5072765;28;20024;-81
2023/07/26 04:40:48;;;;;;;11.02;5.90;;;12.90;82.20;;;;;;5072822;28;20032;-83
2023/07/26 04:43:19;;;;;;;7.25;5.22;;;13.00;82.50;;;;;;5054700;28;20021;-83
2023/07/26 04:45:47;;;;;;;10.00;6.28;;;13.10;81.90;;;;;;5072633;28;20020;-81
2023/07/26 04:48:13;;;;;;;8.65;5.30;;;13.20;81.30;;;;;;5072509;28;20465;-83
2023/07/26 04:50:38;;;;;;;9.05;6.10;;;13.30;81.10;;;;;;5075230;28;20100;-82
2023/07/26 04:53:04;;;;;;;12.82;6.25;;;13.20;80.50;;;;;;5076257;28;20027;-83
2023/07/26 04:55:29;;;;;;;8.55;4.85;;;13.20;81.20;;;;;;5057817;28;20036;-82
2023/07/26 04:57:55;;;;;;;6.38;4.57;;;13.20;80.00;;;;;;5058123;28;20384;-82
2023/07/26 05:00:21;;;;;;;5.50;4.35;;;13.30;80.20;;;;;;5076247;28;20032;-81
2023/07/26 05:02:46;;;;;;;6.63;4.50;;;13.40;79.00;;;;;;5075981;28;20103;-81
2023/07/26 05:05:12;;;;;;;5.32;3.53;;;13.30;79.20;;;;;;5076049;28;20142;-81
2023/07/26 05:07:37;;;;;;;8.57;4.78;;;13.40;78.90;;;;;;5075990;28;20024;-81
2023/07/26 05:10:03;;;;;;;7.75;4.38;;;13.40;78.40;;;;;;5058303;28;20103;-80
2023/07/26 05:12:29;;;;;;;5.38;3.50;;;13.40;78.30;;;;;;5075934;28;20024;-81
2023/07/26 05:14:54;;;;;;;4.70;3.60;;;13.50;78.60;;;;;;5076420;28;20126;-81
2023/07/26 05:17:20;;;;;;;7.30;3.58;;;13.60;78.50;;;;;;5077172;28;20020;-81
2023/07/26 05:19:45;;;;;;;6.13;3.60;;;13.60;78.30;;;;;;5079935;28;20032;-81
2023/07/26 05:22:11;;;;;;;5.20;3.40;;;13.70;78.00;;;;;;5058211;28;20025;-82
2023/07/26 05:24:36;;;;;;;4.50;3.63;;;13.70;77.70;;;;;;5075722;28;20513;-81
2023/07/26 05:27:03;;;;;;;10.07;4.03;;;13.70;77.50;;;;;;5075561;28;20388;-79
2023/07/26 05:29:29;;;;;;;7.05;3.78;;;13.80;76.90;;;;;;5075345;28;20135;-80
2023/07/26 05:31:55;;;;;;;10.48;4.20;;;13.80;77.10;;;;;;5073208;28;20056;-79
2023/07/26 05:34:20;;;;;;;6.47;3.88;;;13.80;76.70;;;;;;5055280;28;20211;-79
2023/07/26 05:36:46;;;;;;;8.02;3.95;;;13.80;76.50;;;;;;5037732;28;20029;-80
2023/07/26 05:39:12;;;;;;;6.88;3.45;;;13.80;75.90;;;;;;5055308;28;20024;-79
2023/07/26 05:41:38;;;;;;;4.60;3.22;;;13.90;76.00;;;;;;5055440;28;20025;-81
2023/07/26 05:44:03;;;;;;;6.25;3.22;;;13.90;76.00;;;;;;5037841;28;20032;-83
2023/07/26 05:46:29;;;;;;;3.88;2.53;;;14.00;75.70;;;;;;5055392;28;20524;-82
2023/07/26 05:48:55;;;;;;;5.38;3.28;;;14.10;75.70;;;;;;5055455;28;20385;-80
2023/07/26 05:51:20;;;;;;;6.78;3.17;;;14.10;75.50;;;;;;5055389;28;20025;-84
2023/07/26 05:53:46;;;;;;;5.72;3.28;;;14.30;75.80;;;;;;5055810;28;20025;-81
2023/07/26 05:56:14;;;;;;;6.15;3.30;;;14.30;77.60;;;;;;5055239;28;20043;-81
2023/07/26 05:58:39;;;;;;;4.88;3.67;;;14.40;77.30;;;;;;5055394;28;20109;-79
2023/07/26 06:01:05;;;;;;;5.97;4.15;;;14.40;77.40;;;;;;5053987;28;20052;-80
2023/07/26 06:03:32;;;;;;;7.45;3.30;;;14.50;77.60;;;;;;5055016;28;20025;-78
2023/07/26 06:05:58;;;;;;;6.18;3.55;;;14.50;77.40;;;;;;5054760;28;20025;-75
2023/07/26 06:08:24;;;;;;;8.75;3.30;;;14.50;76.50;;;;;;5054681;28;20392;-75
2023/07/26 06:10:49;;;;;;;4.38;3.08;;;14.50;74.00;;;;;;5054566;28;20028;-76
2023/07/26 06:13:15;;;;;;;7.03;3.03;;;14.50;73.10;;;;;;5054372;28;20078;-77
2023/07/26 06:15:42;;;;;;;5.85;3.05;;;14.50;73.10;;;;;;5054578;28;20037;-77
2023/07/26 06:18:08;;;;;;;4.53;2.63;;;14.40;72.40;;;;;;5054575;28;20064;-77
2023/07/26 06:20:34;;;;;;;7.88;3.72;;;14.40;72.50;;;;;;5036781;28;20053;-79
2023/07/26 06:23:00;;;;;;;5.63;2.65;;;14.40;73.20;;;;;;5055544;28;20029;-79
2023/07/26 06:25:26;;;;;;;8.05;3.20;;;14.50;73.70;;;;;;5055263;28;20074;-77
2023/07/26 06:27:51;;;;;;;6.57;3.15;;;14.40;73.20;;;;;;5059858;28;20501;-79
2023/07/26 06:30:17;;;;;;;6.50;3.38;;;14.30;74.00;;;;;;5054031;28;20176;-78
2023/07/26 06:32:43;;;;;;;8.77;3.67;;;14.40;73.60;;;;;;5036888;28;20025;-81
2023/07/26 06:35:08;;;;;;;5.35;3.10;;;14.50;73.80;;;;;;5054280;28;20032;-79
2023/07/26 06:37:35;;;;;;;5.28;2.70;;;14.60;71.10;;;;;;5054346;28;20021;-78
2023/07/26 06:40:01;;;;;;;4.95;3.15;;;14.40;71.60;;;;;;5054298;28;20036;-79
2023/07/26 06:42:26;;;;;;;5.47;3.30;;;14.50;72.90;;;;;;5054805;28;20032;-79
2023/07/26 06:44:52;;;;;;;4.25;2.60;;;14.40;73.80;;;;;;5076772;28;20080;-78
2023/07/26 06:47:17;;;;;;;6.75;3.00;;;14.60;72.90;;;;;;5078266;28;20024;-79
2023/07/26 06:49:43;;;;;;;7.25;2.65;;;15.00;72.70;;;;;;5074330;28;20021;-79
2023/07/26 06:52:09;;;;;;;6.57;2.40;;;15.30;69.90;;;;;;5074083;28;20029;-79
2023/07/26 06:54:36;;;;;;;5.60;2.30;;;15.50;68.50;;;;;;5073509;28;20037;-79
2023/07/26 06:57:02;;;;;;;4.70;2.42;;;15.60;67.30;;;;;;5073861;28;20082;-78
2023/07/26 06:59:27;;;;;;;3.50;2.15;;;15.60;66.40;;;;;;5074115;28;20020;-79
2023/07/26 07:01:53;;;;;;;3.42;1.88;;;15.70;64.70;;;;;;5073868;28;20021;-80
2023/07/26 07:04:19;;;;;;;5.15;2.42;;;15.80;64.00;;;;;;5055522;28;20028;-80
2023/07/26 07:06:44;;;;;;;4.90;1.92;;;15.70;63.60;;;;;;5055514;28;20522;-82
2023/07/26 07:09:10;;;;;;;3.35;2.03;;;15.50;64.60;;;;;;5073266;28;20033;-78
2023/07/26 07:11:36;;;;;;;18.05;3.38;;;15.50;65.70;;;;;;5072574;28;20017;-78
2023/07/26 07:14:01;;;;;;;7.00;2.30;;;15.70;66.20;;;;;;5073140;28;20090;-79
2023/07/26 07:16:27;;;;;;;8.48;2.50;;;15.90;64.20;;;;;;5073327;28;20162;-82
2023/07/26 07:18:52;;;;;;;7.00;2.63;;;16.00;63.50;;;;;;5073400;28;20047;-80
2023/07/26 07:21:18;;;;;;;4.78;2.47;;;15.70;64.20;;;;;;5073407;28;20024;-83
2023/07/26 07:23:44;;;;;;;3.38;2.28;;;15.60;65.10;;;;;;5073605;28;20032;-78
2023/07/26 07:26:09;;;;;;;8.32;2.50;;;15.50;66.20;;;;;;5073285;28;20028;-80
2023/07/26 07:28:38;;;;;;;6.20;2.55;;;15.50;66.50;;;;;;5073271;28;20373;-79
2023/07/26 07:31:03;;;;;;;3.70;2.42;;;15.50;65.60;;;;;;5073263;28;20024;-80
2023/07/26 07:33:30;;;;;;;9.57;2.35;;;15.20;66.30;;;;;;5073460;28;20025;-82
2023/07/26 07:35:55;;;;;;;4.65;2.15;;;15.20;66.20;;;;;;5055041;28;20599;-82
2023/07/26 07:38:21;;;;;;;6.32;2.38;;;15.20;66.30;;;;;;5074049;28;20048;-78
2023/07/26 07:40:47;;;;;;;5.85;2.35;;;15.40;66.20;;;;;;5073336;28;20099;-78
2023/07/26 07:43:13;;;;;;;4.03;2.13;;;15.40;66.10;;;;;;5055020;28;20039;-78
2023/07/26 07:45:40;;;;;;;4.47;2.03;;;15.50;66.60;;;;;;5054969;28;20417;-80
2023/07/26 07:48:06;;;;;;;3.22;2.38;;;15.40;68.40;;;;;;5073272;28;20487;-77
2023/07/26 07:50:31;;;;;;;4.53;2.40;;;15.40;67.50;;;;;;5073140;28;20024;-78
2023/07/26 07:52:57;;;;;;;3.08;1.90;;;15.40;66.50;;;;;;5072937;28;20032;-77
2023/07/26 07:55:23;;;;;;;4.50;2.30;;;15.30;66.80;;;;;;5073424;28;20032;-83
2023/07/26 07:57:48;;;;;;;3.50;2.45;;;15.40;66.20;;;;;;5073989;28;20027;-82
2023/07/26 08:00:14;;;;;;;6.65;2.78;;;15.40;67.00;;;;;;5055668;28;20089;-82
2023/07/26 08:02:40;;;;;;;4.97;2.35;;;15.30;67.20;;;;;;5058677;28;20036;-82
2023/07/26 08:05:06;;;;;;;7.03;2.42;;;15.10;68.30;;;;;;5077995;28;20021;-83
2023/07/26 08:07:31;;;;;;;7.05;2.40;;;15.10;68.20;;;;;;5076333;28;20201;-82
2023/07/26 08:09:57;;;;;;;10.77;2.70;;;15.10;68.70;;;;;;5057233;28;20025;-82
2023/07/26 08:12:23;;;;;;;6.50;2.55;;;15.00;68.40;;;;;;5075581;28;20040;-82
2023/07/26 08:14:51;;;;;;;7.70;2.42;;;15.10;68.80;;;;;;5056760;28;20489;-83
2023/07/26 08:17:17;;;;;;;7.18;2.10;;;15.30;68.10;;;;;;5055315;28;20017;-83
2023/07/26 08:19:43;;;;;;;4.22;1.80;;;15.40;66.10;;;;;;5073141;28;20028;-83
2023/07/26 08:22:10;;;;;;;7.30;2.47;;;15.40;66.30;;;;;;5054891;28;20023;-83
2023/07/26 08:24:36;;;;;;;3.30;2.10;;;15.50;65.70;;;;;;5055711;28;20099;-82
2023/07/26 08:27:02;;;;;;;4.45;2.22;;;15.40;67.10;;;;;;5058985;28;20028;-82
2023/07/26 08:29:28;;;;;;;4.05;1.77;;;15.40;66.40;;;;;;5058523;28;20048;-82
2023/07/26 08:31:54;;;;;;;5.10;2.03;;;15.60;64.30;;;;;;5076871;28;20054;-82
2023/07/26 08:34:19;;;;;;;4.15;1.75;;;15.80;63.90;;;;;;5059019;28;20063;-85
2023/07/26 08:36:46;;;;;;;5.10;1.80;;;16.00;63.90;;;;;;5077228;28;20021;-82
2023/07/26 08:39:12;;;;;;;6.88;1.67;;;16.10;61.60;;;;;;5042216;28;20025;-84
2023/07/26 08:41:38;;;;;;;4.32;1.92;;;16.20;61.80;;;;;;5058605;28;20023;-81
2023/07/26 08:44:06;;;;;;;2.95;1.50;;;16.20;61.80;;;;;;5077466;28;20078;-82
2023/07/26 08:46:33;;;;;;;4.32;1.70;;;16.10;62.70;;;;;;5058542;28;20040;-82
2023/07/26 08:48:59;;;;;;;2.95;1.45;;;16.30;58.90;;;;;;5059157;28;20016;-83
2023/07/26 08:51:26;;;;;;;3.28;1.45;;;16.20;61.10;;;;;;5076190;28;20020;-83
2023/07/26 08:53:53;;;;;;;4.15;1.23;;;16.30;62.30;;;;;;5058654;28;20028;-81
2023/07/26 08:56:19;;;;;;;4.57;1.60;;;16.20;57.70;;;;;;5058825;28;20115;-82
2023/07/26 08:58:44;;;;;;;3.10;1.20;;;16.00;59.00;;;;;;5058336;28;20079;-83
2023/07/26 09:01:11;;;;;;;2.85;1.25;;;16.00;59.50;;;;;;5058392;28;20037;-81
2023/07/26 09:03:37;;;;;;;2.63;1.40;;;16.00;60.50;;;;;;5058135;28;20016;-82
2023/07/26 09:06:08;;;;;;;3.15;1.73;;;16.00;61.90;;;;;;5057611;28;20028;-82
2023/07/26 09:08:34;;;;;;;3.83;1.70;;;16.10;60.10;;;;;;5076545;28;20052;-82
2023/07/26 09:11:17;;;;;;;3.50;1.38;;;16.20;62.40;;;;;;5057871;28;20137;-82
2023/07/26 09:13:56;;;;;;;3.83;1.65;;;16.30;59.50;;;;;;5058651;28;20028;-85
2023/07/26 09:16:22;;;;;;;5.10;1.70;;;16.50;59.60;;;;;;5058146;28;20116;-80
2023/07/26 09:19:01;;;;;;;2.42;1.30;;;16.60;57.80;;;;;;5057582;28;20075;-79
2023/07/26 09:21:28;;;;;;;4.68;1.40;;;16.50;59.40;;;;;;5057849;28;20030;-81
2023/07/26 09:23:54;;;;;;;2.90;1.50;;;16.50;59.40;;;;;;5058916;28;20029;-84
2023/07/26 09:26:39;;;;;;;5.35;1.52;;;16.80;56.60;;;;;;5060922;28;20092;-78
2023/07/26 09:29:15;;;;;;;5.35;1.95;;;16.70;56.30;;;;;;5044633;28;20053;-80
2023/07/26 09:31:43;;;;;;;2.67;1.25;;;16.80;58.20;;;;;;5037678;28;20044;-80
2023/07/26 09:34:14;;;;;;;3.53;1.30;;;16.70;56.50;;;;;;5020748;28;20338;-79
2023/07/26 09:36:48;;;;;;;3.28;1.10;;;16.60;56.70;;;;;;5035415;28;20032;-80
2023/07/26 09:39:15;;;;;;;1.77;1.15;;;16.50;54.30;;;;;;5037256;28;20032;-83
2023/07/26 09:41:44;;;;;;;4.07;1.35;;;16.70;56.20;;;;;;5038383;28;20021;-83
2023/07/26 09:44:28;;;;;;;3.60;1.25;;;16.50;57.20;;;;;;5038211;28;20025;-84
2023/07/26 09:46:56;;;;;;;4.47;1.40;;;16.40;58.50;;;;;;5055902;28;20481;-78
2023/07/26 09:49:27;;;;;;;2.20;1.13;;;16.30;57.80;;;;;;5037879;28;20090;-82
2023/07/26 09:51:57;;;;;;;4.55;1.35;;;16.20;58.40;;;;;;5038091;28;20038;-79
2023/07/26 09:54:32;;;;;;;5.60;1.50;;;16.10;59.70;;;;;;5021549;28;20131;-80
2023/07/26 09:56:58;;;;;;;3.47;1.58;;;16.10;60.60;;;;;;5055899;28;20029;-79
2023/07/26 09:59:40;;;;;;;2.78;1.48;;;16.20;60.70;;;;;;5037276;28;20025;-84
2023/07/26 10:02:11;;;;;;;7.13;1.48;;;16.50;59.90;;;;;;5037363;28;20111;-81
2023/07/26 10:04:49;;;;;;;2.13;1.35;;;16.80;58.10;;;;;;5037623;28;20025;-78
2023/07/26 10:07:16;;;;;;;3.72;1.25;;;16.90;55.90;;;;;;5037136;28;20025;-79
2023/07/26 10:09:47;;;;;;;3.28;1.17;;;16.60;54.50;;;;;;5034886;28;20110;-80
2023/07/26 10:12:15;;;;;;;4.38;1.27;;;16.30;56.60;;;;;;5036987;28;20021;-80
2023/07/26 10:15:10;;;;;;;2.13;1.00;;;16.30;56.30;;;;;;5056178;28;20029;-84
2023/07/26 10:18:24;;;;;;;4.43;1.10;;;16.70;57.30;;;;;;5049208;28;20083;-83
2023/07/26 10:21:14;;;;;;;3.40;0.95;;;17.40;56.00;;;;;;5051983;28;20036;-81
2023/07/26 10:23:44;;;;;;;3.58;0.90;;;18.00;55.20;;;;;;5029568;28;20024;-83
2023/07/26 10:26:13;;;;;;;6.03;1.30;;;18.40;50.00;;;;;;5042339;28;20034;-81
2023/07/26 10:28:39;;;;;;;5.10;0.93;;;18.20;48.70;;;;;;5020706;28;20103;-83
2023/07/26 10:31:05;;;;;;;3.63;1.02;;;18.00;50.40;;;;;;5026966;28;20021;-83
2023/07/26 10:33:31;;;;;;;2.38;1.20;;;18.30;50.70;;;;;;5010545;28;20477;-83
2023/07/26 10:36:06;;;;;;;4.15;0.80;;;18.30;46.80;;;;;;5012145;28;20037;-82
2023/07/26 10:38:52;;;;;;;;;;;18.20;46.20;;;;;;5012368;28;20029;-83
2023/07/26 10:41:24;;;;;;;1.58;1.20;;;18.20;47.10;;;;;;5025993;28;20322;-84
2023/07/26 10:44:01;;;;;;;2.75;1.20;;;17.80;47.80;;;;;;5033154;28;20067;-84
2023/07/26 10:46:29;;;;;;;2.55;1.40;;;17.70;48.00;;;;;;5029356;28;20060;-84
2023/07/26 10:48:55;;;;;;;6.70;1.40;;;17.50;53.90;;;;;;5035178;28;20036;-81
2023/07/26 10:51:32;;;;;;;3.10;1.70;;;17.20;58.00;;;;;;5017615;28;20038;-82
2023/07/26 10:53:59;;;;;;;4.13;2.03;;;16.80;59.70;;;;;;5040032;28;20026;-81
2023/07/26 10:56:30;;;;;;;6.82;2.03;;;16.50;59.70;;;;;;5025897;28;20039;-80
2023/07/26 10:59:08;;;;;;;3.67;1.52;;;16.20;63.40;;;;;;5041190;28;20092;-81
2023/07/26 11:01:44;;;;;;;3.53;1.60;;;15.80;67.30;;;;;;5049979;28;20028;-85
2023/07/26 11:04:21;;;;;;;4.18;1.48;;;15.30;71.10;;;;;;5021817;28;20021;-82
2023/07/26 11:06:55;;;;;;;3.72;1.70;;;14.80;71.80;;;;;;5015296;28;20032;-83
2023/07/26 11:09:25;;;;;;;4.63;1.35;;;14.30;73.20;;;;;;5025075;28;20079;-79
2023/07/26 11:11:56;;;;;;;2.42;0.93;;;13.90;72.80;;;;;;5025934;28;20025;-79
2023/07/26 11:14:24;;;;;;;2.42;1.25;;;13.50;75.10;;;;;;5024593;28;20047;-79
2023/07/26 11:16:49;;;;;;;3.47;1.45;;;13.40;77.20;;;;;;5024623;28;20029;-84
2023/07/26 11:19:15;;;;;;;2.65;1.45;;;13.10;78.50;;;;;;5026947;28;20389;-80
2023/07/26 11:21:44;;;;;;;4.53;1.45;;;12.90;79.70;;;;;;5025333;28;20116;-79
2023/07/26 11:24:09;;;;;;;2.72;1.63;;;12.80;79.60;;;;;;5035623;28;20029;-79
2023/07/26 11:26:45;;;;;;;1.80;1.40;;;12.70;81.40;;;;;;5020372;28;20061;-80
2023/07/26 11:29:11;;;;;;;4.03;1.50;;;12.70;81.30;;;;;;5034923;28;20044;-78
2023/07/26 11:31:42;;;;;;;4.28;1.88;;;12.60;80.10;;;;;;5056631;28;20032;-79
2023/07/26 11:34:19;;;;;;;4.28;2.03;;;12.40;79.60;;;;;;5055123;28;20385;-79
2023/07/26 11:36:46;;;;;;;6.13;1.88;;;12.20;82.40;;;;;;5056409;28;20021;-81
2023/07/26 11:39:24;;;;;;;2.42;1.88;;;12.30;82.10;;;;;;5039415;28;20123;-81
2023/07/26 11:41:52;;;;;;;2.67;1.95;;;12.30;82.30;;;;;;5073790;28;20020;-80
2023/07/26 11:44:22;;;;;;;3.28;1.95;;;12.50;81.50;;;;;;5038615;28;20039;-80
2023/07/26 11:46:48;;;;;;;3.55;2.10;;;12.60;79.50;;;;;;5056145;28;20025;-76
2023/07/26 11:49:21;;;;;;;4.25;1.92;;;12.80;78.50;;;;;;5055352;28;20060;-81
2023/07/26 11:51:48;;;;;;;2.67;1.83;;;13.00;77.70;;;;;;5054811;28;20582;-79
2023/07/26 11:54:13;;;;;;;3.50;2.60;;;13.10;76.90;;;;;;5055256;28;20028;-78
2023/07/26 11:56:40;;;;;;;3.22;2.25;;;13.20;78.50;;;;;;5054946;28;20063;-81
2023/07/26 11:59:06;;;;;;;2.50;1.90;;;13.40;76.70;;;;;;5054381;28;20028;-79
2023/07/26 12:01:34;;;;;;;4.88;2.10;;;13.70;75.30;;;;;;5072851;28;20036;-78
2023/07/26 12:04:01;;;;;;;3.42;2.38;;;13.90;73.50;;;;;;5039165;28;20154;-82
2023/07/26 12:06:31;;;;;;;4.25;2.30;;;14.20;72.20;;;;;;5056769;28;20032;-77
2023/07/26 12:09:09;;;;;;;3.40;2.30;;;14.50;71.60;;;;;;5057882;28;20119;-77
2023/07/26 12:11:42;;;;;;;4.03;2.30;;;14.80;69.70;;;;;;5059896;28;20021;-77
2023/07/26 12:14:08;;;;;;;5.68;2.47;;;14.90;70.40;;;;;;5060854;28;20020;-76
2023/07/26 12:16:35;;;;;;;6.50;2.50;;;15.30;68.90;;;;;;5055820;28;20033;-79
2023/07/26 12:19:01;;;;;;;3.97;2.55;;;15.40;64.20;;;;;;5072497;28;20017;-77
2023/07/26 12:21:29;;;;;;;4.28;2.50;;;15.70;66.40;;;;;;5054739;28;20031;-80
2023/07/26 12:23:55;;;;;;;4.45;2.88;;;16.40;64.90;;;;;;5054784;28;20119;-76
2023/07/26 12:26:23;;;;;;;4.72;2.50;;;17.10;68.40;;;;;;5054928;28;20063;-76
2023/07/26 12:28:54;;;;;;;4.35;2.58;;;17.30;62.80;;;;;;5054649;28;20048;-78
2023/07/26 12:31:25;;;;;;;3.65;2.63;;;17.50;61.50;;;;;;5054209;28;20024;-77
2023/07/26 12:34:00;;;;;;;3.85;2.45;;;17.60;61.80;;;;;;5054553;28;20028;-79
2023/07/26 12:36:45;;;;;;;5.30;2.60;;;17.70;57.90;;;;;;5037454;28;20120;-76
2023/07/26 12:39:12;;;;;;;4.57;3.13;;;17.50;58.20;;;;;;5052926;28;20437;-79
2023/07/26 12:41:39;;;;;;;5.30;3.17;;;17.30;58.60;;;;;;5027152;28;20110;-78
2023/07/26 12:44:06;;;;;;;4.25;3.08;;;17.40;62.00;;;;;;5034381;28;20021;-78
2023/07/26 12:46:33;;;;;;;4.22;2.60;;;17.60;59.60;;;;;;5034880;28;20040;-80
2023/07/26 12:48:58;;;;;;;3.78;2.78;;;17.50;59.30;;;;;;5034569;28;20021;-75